sensor_id;sensor_type;location;lat;lon;timestamp;temperature;humidity
47921;DHT22;33686;48.770;9.186;2023-05-14T05:16:28;10.90;99.90
47921;DHT22;33686;48.770;9.186;2023-05-14T05:18:54;10.90;99.90
47921;DHT22;33686;48.770;9.186;2023-05-14T05:21:19;10.80;99.90
47921;DHT22;33686;48.770;9.186;2023-05-14T05:23:45;10.80;99.90
47921;DHT22;33686;48.770;9.186;2023-05-14T05:26:11;10.90;99.90
47921;DHT22;33686;48.770;9.186;2023-05-14T05:28:36;10.70;99.90
47921;DHT22;33686;48.770;9.186;2023-05-14T05:31:02;10.80;99.90
47921;DHT22;33686;48.770;9.186;2023-05-14T05:33:27;10.80;99.90
47921;DHT22;33686;48.770;9.186;2023-05-14T05:35:53;10.90;99.90
47921;DHT22;33686;48.770;9.186;2023-05-14T05:38:18;10.80;99.90
47921;DHT22;33686;48.770;9.186;2023-05-14T05:40:44;10.70;99.90
47921;DHT22;33686;48.770;9.186;2023-05-14T05:43:10;10.80;99.90
47921;DHT22;33686;48.770;9.186;2023-05-14T05:45:35;10.80;99.90
47921;DHT22;33686;48.770;9.186;2023-05-14T05:48:01;10.80;99.90
47921;DHT22;33686;48.770;9.186;2023-05-14T05:50:27;10.90;99.90
47921;DHT22;33686;48.770;9.186;2023-05-14T05:52:52;10.90;99.90
47921;DHT22;33686;48.770;9.186;2023-05-14T05:55:18;10.80;99.90
47921;DHT22;33686;48.770;9.186;2023-05-14T05:57:43;10.90;99.90
47921;DHT22;33686;48.770;9.186;2023-05-14T06:00:09;10.90;99.90
47921;DHT22;33686;48.770;9.186;2023-05-14T06:02:38;11.00;99.90
47921;DHT22;33686;48.770;9.186;2023-05-14T06:05:04;11.00;99.90
47921;DHT22;33686;48.770;9.186;2023-05-14T06:07:30;11.00;99.90
47921;DHT22;33686;48.770;9.186;2023-05-14T06:09:55;11.10;99.90
47921;DHT22;33686;48.770;9.186;2023-05-14T06:12:21;11.10;99.90
47921;DHT22;33686;48.770;9.186;2023-05-14T06:14:46;11.10;99.90
47921;DHT22;33686;48.770;9.186;2023-05-14T06:17:12;11.20;99.90
47921;DHT22;33686;48.770;9.186;2023-05-14T06:19:38;11.20;99.90
47921;DHT22;33686;48.770;9.186;2023-05-14T06:22:03;11.10;99.90
47921;DHT22;33686;48.770;9.186;2023-05-14T06:24:29;11.30;99.90
47921;DHT22;33686;48.770;9.186;2023-05-14T06:26:54;11.50;99.90
47921;DHT22;33686;48.770;9.186;2023-05-14T06:29:20;11.50;99.90
47921;DHT22;33686;48.770;9.186;2023-05-14T06:31:45;11.60;99.90
47921;DHT22;33686;48.770;9.186;2023-05-14T06:34:11;11.70;99.90
47921;DHT22;33686;48.770;9.186;2023-05-14T06:36:36;11.80;99.90
47921;DHT22;33686;48.770;9.186;2023-05-14T06:39:02;11.70;99.90
47921;DHT22;33686;48.770;9.186;2023-05-14T06:41:28;11.60;99.90
47921;DHT22;33686;48.770;9.186;2023-05-14T06:43:53;11.70;99.90
47921;DHT22;33686;48.770;9.186;2023-05-14T06:46:19;11.90;99.90
47921;DHT22;33686;48.770;9.186;2023-05-14T06:48:45;11.80;99.90
47921;DHT22;33686;48.770;9.186;2023-05-14T06:51:10;11.90;99.90
47921;DHT22;33686;48.770;9.186;2023-05-14T06:53:37;11.90;99.90
47921;DHT22;33686;48.770;9.186;2023-05-14T06:56:03;12.10;99.90
47921;DHT22;33686;48.770;9.186;2023-05-14T06:58:29;12.10;99.90
47921;DHT22;33686;48.770;9.186;2023-05-14T07:00:54;12.20;99.90
47921;DHT22;33686;48.770;9.186;2023-05-14T07:03:20;12.10;99.90
47921;DHT22;33686;48.770;9.186;2023-05-14T07:05:46;12.20;99.90
47921;DHT22;33686;48.770;9.186;2023-05-14T07:08:12;12.20;99.90
47921;DHT22;33686;48.770;9.186;2023-05-14T07:10:37;12.30;99.90
47921;DHT22;33686;48.770;9.186;2023-05-14T07:13:04;12.10;99.90
47921;DHT22;33686;48.770;9.186;2023-05-14T07:15:29;12.30;99.90
47921;DHT22;33686;48.770;9.186;2023-05-14T07:17:55;12.40;99.90
47921;DHT22;33686;48.770;9.186;2023-05-14T07:20:20;12.50;99.90
47921;DHT22;33686;48.770;9.186;2023-05-14T07:22:48;12.50;99.90
47921;DHT22;33686;48.770;9.186;2023-05-14T07:25:13;12.60;99.90
47921;DHT22;33686;48.770;9.186;2023-05-14T07:27:39;12.50;99.90
47921;DHT22;33686;48.770;9.186;2023-05-14T07:30:05;12.60;99.90
47921;DHT22;33686;48.770;9.186;2023-05-14T07:32:31;12.80;99.90
47921;DHT22;33686;48.770;9.186;2023-05-14T07:34:57;13.00;99.90
47921;DHT22;33686;48.770;9.186;2023-05-14T07:37:22;13.20;99.90
47921;DHT22;33686;48.770;9.186;2023-05-14T07:39:50;13.20;99.90
47921;DHT22;33686;48.770;9.186;2023-05-14T07:42:16;13.30;99.90
47921;DHT22;33686;48.770;9.186;2023-05-14T07:44:42;13.50;99.90
47921;DHT22;33686;48.770;9.186;2023-05-14T07:47:07;13.60;99.90
47921;DHT22;33686;48.770;9.186;2023-05-14T07:49:33;13.60;99.90
47921;DHT22;33686;48.770;9.186;2023-05-14T07:51:59;13.90;99.90
47921;DHT22;33686;48.770;9.186;2023-05-14T07:54:24;13.90;99.90
47921;DHT22;33686;48.770;9.186;2023-05-14T07:56:50;14.30;99.90
47921;DHT22;33686;48.770;9.186;2023-05-14T07:59:16;14.50;99.90
47921;DHT22;33686;48.770;9.186;2023-05-14T08:01:41;15.10;99.90
47921;DHT22;33686;48.770;9.186;2023-05-14T08:04:07;15.50;99.90
47921;DHT22;33686;48.770;9.186;2023-05-14T08:06:32;15.50;99.90
47921;DHT22;33686;48.770;9.186;2023-05-14T08:08:58;15.60;99.90
47921;DHT22;33686;48.770;9.186;2023-05-14T08:11:24;15.40;99.90
47921;DHT22;33686;48.770;9.186;2023-05-14T08:13:50;16.20;99.90
47921;DHT22;33686;48.770;9.186;2023-05-14T08:16:15;17.70;99.90
47921;DHT22;33686;48.770;9.186;2023-05-14T08:18:41;19.30;99.90
47921;DHT22;33686;48.770;9.186;2023-05-14T08:21:07;19.60;99.90
47921;DHT22;33686;48.770;9.186;2023-05-14T08:23:32;18.50;99.90
47921;DHT22;33686;48.770;9.186;2023-05-14T08:25:58;18.50;99.90
47921;DHT22;33686;48.770;9.186;2023-05-14T08:28:24;17.60;99.90
47921;DHT22;33686;48.770;9.186;2023-05-14T08:30:49;17.50;99.90
47921;DHT22;33686;48.770;9.186;2023-05-14T08:33:15;17.90;99.90
47921;DHT22;33686;48.770;9.186;2023-05-14T08:35:42;17.60;99.90
47921;DHT22;33686;48.770;9.186;2023-05-14T08:38:07;17.20;99.90
47921;DHT22;33686;48.770;9.186;2023-05-14T08:40:33;17.60;99.90
47921;DHT22;33686;48.770;9.186;2023-05-14T08:42:59;17.40;99.90
47921;DHT22;33686;48.770;9.186;2023-05-14T08:45:27;18.00;99.90
47921;DHT22;33686;48.770;9.186;2023-05-14T08:47:53;17.80;99.90
47921;DHT22;33686;48.770;9.186;2023-05-14T08:50:20;18.30;99.90
47921;DHT22;33686;48.770;9.186;2023-05-14T08:52:46;18.90;99.90
47921;DHT22;33686;48.770;9.186;2023-05-14T08:55:12;18.60;99.90
47921;DHT22;33686;48.770;9.186;2023-05-14T08:57:38;18.30;99.90
47921;DHT22;33686;48.770;9.186;2023-05-14T09:00:04;18.00;99.90
47921;DHT22;33686;48.770;9.186;2023-05-14T09:02:32;17.70;99.90
47921;DHT22;33686;48.770;9.186;2023-05-14T09:05:00;17.50;99.90
47921;DHT22;33686;48.770;9.186;2023-05-14T09:07:26;18.00;99.90
47921;DHT22;33686;48.770;9.186;2023-05-14T09:09:52;18.10;99.90
47921;DHT22;33686;48.770;9.186;2023-05-14T09:12:18;18.30;99.90
47921;DHT22;33686;48.770;9.186;2023-05-14T09:14:43;17.70;99.90
47921;DHT22;33686;48.770;9.186;2023-05-14T09:17:09;17.00;99.90
47921;DHT22;33686;48.770;9.186;2023-05-14T09:19:39;17.10;99.90
47921;DHT22;33686;48.770;9.186;2023-05-14T09:22:09;17.00;99.90
47921;DHT22;33686;48.770;9.186;2023-05-14T09:24:35;17.40;99.90
47921;DHT22;33686;48.770;9.186;2023-05-14T09:27:03;17.80;99.90
47921;DHT22;33686;48.770;9.186;2023-05-14T09:29:28;18.70;99.90
47921;DHT22;33686;48.770;9.186;2023-05-14T09:31:54;20.40;99.90
47921;DHT22;33686;48.770;9.186;2023-05-14T09:34:24;20.10;99.90
47921;DHT22;33686;48.770;9.186;2023-05-14T09:36:53;19.60;99.90
47921;DHT22;33686;48.770;9.186;2023-05-14T09:39:19;19.30;99.90
47921;DHT22;33686;48.770;9.186;2023-05-14T09:41:44;19.70;99.90
47921;DHT22;33686;48.770;9.186;2023-05-14T09:44:10;19.10;99.90
47921;DHT22;33686;48.770;9.186;2023-05-14T09:46:35;17.70;99.90
47921;DHT22;33686;48.770;9.186;2023-05-14T09:49:01;17.70;99.90
47921;DHT22;33686;48.770;9.186;2023-05-14T09:51:28;17.70;99.90
47921;DHT22;33686;48.770;9.186;2023-05-14T09:53:55;17.00;99.90
47921;DHT22;33686;48.770;9.186;2023-05-14T09:56:21;17.40;99.90
47921;DHT22;33686;48.770;9.186;2023-05-14T09:58:47;17.10;99.90
47921;DHT22;33686;48.770;9.186;2023-05-14T10:01:13;17.00;99.90
47921;DHT22;33686;48.770;9.186;2023-05-14T10:03:39;16.90;99.90
47921;DHT22;33686;48.770;9.186;2023-05-14T10:06:05;16.40;99.90
47921;DHT22;33686;48.770;9.186;2023-05-14T10:08:34;16.60;99.90
47921;DHT22;33686;48.770;9.186;2023-05-14T10:11:00;16.40;99.90
47921;DHT22;33686;48.770;9.186;2023-05-14T10:13:29;16.30;99.90
47921;DHT22;33686;48.770;9.186;2023-05-14T10:16:05;16.30;99.90
47921;DHT22;33686;48.770;9.186;2023-05-14T10:18:34;16.20;99.90
47921;DHT22;33686;48.770;9.186;2023-05-14T10:21:03;16.30;99.90
47921;DHT22;33686;48.770;9.186;2023-05-14T10:23:30;16.30;99.90
47921;DHT22;33686;48.770;9.186;2023-05-14T10:25:56;16.40;99.90
47921;DHT22;33686;48.770;9.186;2023-05-14T10:28:22;16.50;99.90
47921;DHT22;33686;48.770;9.186;2023-05-14T10:30:48;16.40;99.90
47921;DHT22;33686;48.770;9.186;2023-05-14T10:33:14;16.50;99.90
47921;DHT22;33686;48.770;9.186;2023-05-14T10:35:56;16.70;99.90
47921;DHT22;33686;48.770;9.186;2023-05-14T10:38:41;16.90;99.90
47921;DHT22;33686;48.770;9.186;2023-05-14T10:41:11;17.10;99.90
47921;DHT22;33686;48.770;9.186;2023-05-14T10:43:37;17.10;99.90
47921;DHT22;33686;48.770;9.186;2023-05-14T10:46:03;17.10;99.90
47921;DHT22;33686;48.770;9.186;2023-05-14T10:48:29;17.20;99.90
47921;DHT22;33686;48.770;9.186;2023-05-14T10:50:55;17.20;99.90
47921;DHT22;33686;48.770;9.186;2023-05-14T10:53:31;17.30;99.90
47921;DHT22;33686;48.770;9.186;2023-05-14T10:56:00;17.80;99.90
47921;DHT22;33686;48.770;9.186;2023-05-14T10:58:25;18.10;99.90
47921;DHT22;33686;48.770;9.186;2023-05-14T11:00:55;18.30;99.90
47921;DHT22;33686;48.770;9.186;2023-05-14T11:03:21;17.80;99.90
47921;DHT22;33686;48.770;9.186;2023-05-14T11:05:46;17.80;99.90
47921;DHT22;33686;48.770;9.186;2023-05-14T11:08:12;17.70;99.90
47921;DHT22;33686;48.770;9.186;2023-05-14T11:10:38;17.60;99.90
47921;DHT22;33686;48.770;9.186;2023-05-14T11:13:03;17.40;99.90
47921;DHT22;33686;48.770;9.186;2023-05-14T11:15:29;17.10;99.90
47921;DHT22;33686;48.770;9.186;2023-05-14T11:17:55;16.80;99.90
47921;DHT22;33686;48.770;9.186;2023-05-14T11:20:20;16.50;99.90
47921;DHT22;33686;48.770;9.186;2023-05-14T11:22:46;16.50;99.90
47921;DHT22;33686;48.770;9.186;2023-05-14T11:25:12;16.40;99.90
47921;DHT22;33686;48.770;9.186;2023-05-14T11:27:39;16.40;99.90
47921;DHT22;33686;48.770;9.186;2023-05-14T11:30:18;16.60;99.90
47921;DHT22;33686;48.770;9.186;2023-05-14T11:32:44;16.90;99.90
47921;DHT22;33686;48.770;9.186;2023-05-14T11:35:10;17.30;99.90
47921;DHT22;33686;48.770;9.186;2023-05-14T11:37:37;17.20;99.90
47921;DHT22;33686;48.770;9.186;2023-05-14T11:40:05;17.50;99.90
47921;DHT22;33686;48.770;9.186;2023-05-14T11:42:32;18.00;99.90
47921;DHT22;33686;48.770;9.186;2023-05-14T11:44:57;17.70;99.90
47921;DHT22;33686;48.770;9.186;2023-05-14T11:47:23;17.80;99.90
47921;DHT22;33686;48.770;9.186;2023-05-14T11:49:48;17.30;99.90
47921;DHT22;33686;48.770;9.186;2023-05-14T11:52:14;17.50;99.90
47921;DHT22;33686;48.770;9.186;2023-05-14T11:54:41;17.30;99.90
47921;DHT22;33686;48.770;9.186;2023-05-14T11:57:17;17.10;99.90
47921;DHT22;33686;48.770;9.186;2023-05-14T11:59:43;17.10;99.90
47921;DHT22;33686;48.770;9.186;2023-05-14T12:02:09;17.10;99.90
47921;DHT22;33686;48.770;9.186;2023-05-14T12:04:35;17.10;99.90
47921;DHT22;33686;48.770;9.186;2023-05-14T12:07:06;16.90;99.90
47921;DHT22;33686;48.770;9.186;2023-05-14T12:09:34;17.20;99.90
47921;DHT22;33686;48.770;9.186;2023-05-14T12:12:06;17.50;99.90
47921;DHT22;33686;48.770;9.186;2023-05-14T12:14:35;17.70;99.90
47921;DHT22;33686;48.770;9.186;2023-05-14T12:17:01;17.50;99.90
47921;DHT22;33686;48.770;9.186;2023-05-14T12:19:26;17.40;99.90
47921;DHT22;33686;48.770;9.186;2023-05-14T12:21:54;17.70;99.90
47921;DHT22;33686;48.770;9.186;2023-05-14T12:24:19;18.00;99.90
47921;DHT22;33686;48.770;9.186;2023-05-14T12:26:45;17.70;99.90
47921;DHT22;33686;48.770;9.186;2023-05-14T12:29:12;17.40;99.90
47921;DHT22;33686;48.770;9.186;2023-05-14T12:31:38;17.20;99.90
47921;DHT22;33686;48.770;9.186;2023-05-14T12:34:09;17.00;99.90
47921;DHT22;33686;48.770;9.186;2023-05-14T12:36:34;16.90;99.90
47921;DHT22;33686;48.770;9.186;2023-05-14T12:39:00;16.90;99.90
47921;DHT22;33686;48.770;9.186;2023-05-14T12:41:27;17.00;99.90
47921;DHT22;33686;48.770;9.186;2023-05-14T12:43:53;17.30;99.90
47921;DHT22;33686;48.770;9.186;2023-05-14T12:46:18;17.20;99.90
47921;DHT22;33686;48.770;9.186;2023-05-14T12:48:44;16.90;99.90
47921;DHT22;33686;48.770;9.186;2023-05-14T12:51:09;17.10;99.90
47921;DHT22;33686;48.770;9.186;2023-05-14T12:53:35;17.40;99.90
47921;DHT22;33686;48.770;9.186;2023-05-14T12:56:00;17.30;99.90
47921;DHT22;33686;48.770;9.186;2023-05-14T12:58:26;17.40;99.90
47921;DHT22;33686;48.770;9.186;2023-05-14T13:00:51;17.60;99.90
47921;DHT22;33686;48.770;9.186;2023-05-14T13:03:17;17.70;99.90
47921;DHT22;33686;48.770;9.186;2023-05-14T13:05:42;17.80;99.90
47921;DHT22;33686;48.770;9.186;2023-05-14T13:08:08;18.30;99.90
47921;DHT22;33686;48.770;9.186;2023-05-14T13:10:33;18.60;99.90
47921;DHT22;33686;48.770;9.186;2023-05-14T13:12:59;18.70;99.90
47921;DHT22;33686;48.770;9.186;2023-05-14T13:15:26;18.40;99.90
47921;DHT22;33686;48.770;9.186;2023-05-14T13:17:51;18.30;99.90
47921;DHT22;33686;48.770;9.186;2023-05-14T13:20:17;18.20;99.90
47921;DHT22;33686;48.770;9.186;2023-05-14T13:22:43;17.60;99.90
47921;DHT22;33686;48.770;9.186;2023-05-14T13:25:08;17.60;99.90
47921;DHT22;33686;48.770;9.186;2023-05-14T13:27:34;17.30;99.90
47921;DHT22;33686;48.770;9.186;2023-05-14T13:30:01;17.20;99.90
47921;DHT22;33686;48.770;9.186;2023-05-14T13:32:27;17.20;99.90
47921;DHT22;33686;48.770;9.186;2023-05-14T13:34:52;17.30;99.90
47921;DHT22;33686;48.770;9.186;2023-05-14T13:37:18;17.30;99.90
47921;DHT22;33686;48.770;9.186;2023-05-14T13:39:44;17.20;99.90
47921;DHT22;33686;48.770;9.186;2023-05-14T13:42:09;17.00;99.90
47921;DHT22;33686;48.770;9.186;2023-05-14T13:44:35;17.00;99.90
47921;DHT22;33686;48.770;9.186;2023-05-14T13:47:01;17.00;99.90
47921;DHT22;33686;48.770;9.186;2023-05-14T13:49:26;17.00;99.90
47921;DHT22;33686;48.770;9.186;2023-05-14T13:51:52;17.00;99.90
47921;DHT22;33686;48.770;9.186;2023-05-14T13:54:17;17.00;99.90
47921;DHT22;33686;48.770;9.186;2023-05-14T13:56:43;17.20;99.90
47921;DHT22;33686;48.770;9.186;2023-05-14T13:59:08;17.40;99.90
47921;DHT22;33686;48.770;9.186;2023-05-14T14:01:35;17.70;99.90
47921;DHT22;33686;48.770;9.186;2023-05-14T14:04:00;17.50;99.90
47921;DHT22;33686;48.770;9.186;2023-05-14T14:06:26;17.50;99.90
47921;DHT22;33686;48.770;9.186;2023-05-14T14:08:52;17.40;99.90
47921;DHT22;33686;48.770;9.186;2023-05-14T14:11:17;17.30;99.90
47921;DHT22;33686;48.770;9.186;2023-05-14T14:13:43;17.20;99.90
47921;DHT22;33686;48.770;9.186;2023-05-14T14:16:08;17.10;99.90
47921;DHT22;33686;48.770;9.186;2023-05-14T14:18:34;17.10;99.90
47921;DHT22;33686;48.770;9.186;2023-05-14T14:21:00;17.20;99.90
47921;DHT22;33686;48.770;9.186;2023-05-14T14:23:26;17.30;99.90
47921;DHT22;33686;48.770;9.186;2023-05-14T14:25:51;17.30;99.90
47921;DHT22;33686;48.770;9.186;2023-05-14T14:28:17;17.20;99.90
47921;DHT22;33686;48.770;9.186;2023-05-14T14:30:43;17.00;99.90
47921;DHT22;33686;48.770;9.186;2023-05-14T14:33:08;17.10;99.90
47921;DHT22;33686;48.770;9.186;2023-05-14T14:35:34;17.20;99.90
47921;DHT22;33686;48.770;9.186;2023-05-14T14:38:00;17.40;99.90
47921;DHT22;33686;48.770;9.186;2023-05-14T14:40:26;17.50;99.90
47921;DHT22;33686;48.770;9.186;2023-05-14T14:42:51;17.30;99.90
47921;DHT22;33686;48.770;9.186;2023-05-14T14:45:17;17.20;99.90
47921;DHT22;33686;48.770;9.186;2023-05-14T14:47:43;17.30;99.90
47921;DHT22;33686;48.770;9.186;2023-05-14T14:50:10;17.50;99.90
47921;DHT22;33686;48.770;9.186;2023-05-14T14:52:36;17.40;99.90
47921;DHT22;33686;48.770;9.186;2023-05-14T14:55:02;17.60;99.90
47921;DHT22;33686;48.770;9.186;2023-05-14T14:57:28;17.70;99.90
47921;DHT22;33686;48.770;9.186;2023-05-14T14:59:53;17.60;99.90
47921;DHT22;33686;48.770;9.186;2023-05-14T15:02:19;17.80;99.90
47921;DHT22;33686;48.770;9.186;2023-05-14T15:04:44;17.90;99.90
47921;DHT22;33686;48.770;9.186;2023-05-14T15:07:10;18.00;99.90
47921;DHT22;33686;48.770;9.186;2023-05-14T15:09:36;18.10;99.90
47921;DHT22;33686;48.770;9.186;2023-05-14T15:12:01;18.40;99.90
47921;DHT22;33686;48.770;9.186;2023-05-14T15:14:27;18.70;99.90
47921;DHT22;33686;48.770;9.186;2023-05-14T15:16:52;18.60;99.90
47921;DHT22;33686;48.770;9.186;2023-05-14T15:19:18;18.50;99.90
47921;DHT22;33686;48.770;9.186;2023-05-14T15:21:43;18.60;99.90
47921;DHT22;33686;48.770;9.186;2023-05-14T15:24:12;18.50;99.90
47921;DHT22;33686;48.770;9.186;2023-05-14T15:26:37;18.10;99.90
47921;DHT22;33686;48.770;9.186;2023-05-14T15:29:03;17.70;99.90
47921;DHT22;33686;48.770;9.186;2023-05-14T15:31:30;17.30;99.90
47921;DHT22;33686;48.770;9.186;2023-05-14T15:33:55;16.70;99.90
47921;DHT22;33686;48.770;9.186;2023-05-14T15:36:21;16.00;99.90
47921;DHT22;33686;48.770;9.186;2023-05-14T15:38:46;15.80;99.90
47921;DHT22;33686;48.770;9.186;2023-05-14T15:41:12;15.80;99.90
47921;DHT22;33686;48.770;9.186;2023-05-14T15:43:37;15.50;99.90
47921;DHT22;33686;48.770;9.186;2023-05-14T15:46:03;15.30;99.90
47921;DHT22;33686;48.770;9.186;2023-05-14T15:48:28;15.20;99.90
47921;DHT22;33686;48.770;9.186;2023-05-14T15:50:54;15.10;99.90
47921;DHT22;33686;48.770;9.186;2023-05-14T15:53:20;15.10;99.90
47921;DHT22;33686;48.770;9.186;2023-05-14T15:55:48;14.80;99.90
47921;DHT22;33686;48.770;9.186;2023-05-14T15:58:14;14.80;99.90
47921;DHT22;33686;48.770;9.186;2023-05-14T16:00:40;14.50;99.90
47921;DHT22;33686;48.770;9.186;2023-05-14T16:03:05;14.50;99.90
47921;DHT22;33686;48.770;9.186;2023-05-14T16:05:31;14.50;99.90
47921;DHT22;33686;48.770;9.186;2023-05-14T16:07:57;14.60;99.90
47921;DHT22;33686;48.770;9.186;2023-05-14T16:10:23;14.60;99.90
47921;DHT22;33686;48.770;9.186;2023-05-14T16:12:48;14.60;99.90
47921;DHT22;33686;48.770;9.186;2023-05-14T16:15:14;14.60;99.90
47921;DHT22;33686;48.770;9.186;2023-05-14T16:17:40;14.70;99.90
47921;DHT22;33686;48.770;9.186;2023-05-14T16:20:06;14.90;99.90
47921;DHT22;33686;48.770;9.186;2023-05-14T16:22:32;14.80;99.90
47921;DHT22;33686;48.770;9.186;2023-05-14T16:24:59;14.90;99.90
47921;DHT22;33686;48.770;9.186;2023-05-14T16:27:24;15.20;99.90
47921;DHT22;33686;48.770;9.186;2023-05-14T16:29:50;15.30;99.90
47921;DHT22;33686;48.770;9.186;2023-05-14T16:32:16;15.60;99.90
47921;DHT22;33686;48.770;9.186;2023-05-14T16:34:42;15.70;99.90
47921;DHT22;33686;48.770;9.186;2023-05-14T16:37:14;15.80;99.90
47921;DHT22;33686;48.770;9.186;2023-05-14T16:39:40;16.10;99.90
47921;DHT22;33686;48.770;9.186;2023-05-14T16:42:06;16.10;99.90
47921;DHT22;33686;48.770;9.186;2023-05-14T16:44:31;16.20;99.90
47921;DHT22;33686;48.770;9.186;2023-05-14T16:46:57;16.40;99.90
47921;DHT22;33686;48.770;9.186;2023-05-14T16:49:23;16.40;99.90
47921;DHT22;33686;48.770;9.186;2023-05-14T16:51:48;16.50;99.90
47921;DHT22;33686;48.770;9.186;2023-05-14T16:54:14;16.50;99.90
47921;DHT22;33686;48.770;9.186;2023-05-14T16:56:39;16.50;99.90
47921;DHT22;33686;48.770;9.186;2023-05-14T16:59:06;16.50;99.90
47921;DHT22;33686;48.770;9.186;2023-05-14T17:01:32;16.60;99.90
47921;DHT22;33686;48.770;9.186;2023-05-14T17:03:57;16.60;99.90
47921;DHT22;33686;48.770;9.186;2023-05-14T17:06:23;16.70;99.90
47921;DHT22;33686;48.770;9.186;2023-05-14T17:08:48;16.70;99.90
47921;DHT22;33686;48.770;9.186;2023-05-14T17:11:14;16.80;99.90
47921;DHT22;33686;48.770;9.186;2023-05-14T17:13:39;16.80;99.90
47921;DHT22;33686;48.770;9.186;2023-05-14T17:16:05;16.70;99.90
47921;DHT22;33686;48.770;9.186;2023-05-14T17:18:31;16.60;99.90
47921;DHT22;33686;48.770;9.186;2023-05-14T17:20:57;16.40;99.90
47921;DHT22;33686;48.770;9.186;2023-05-14T17:23:22;16.40;99.90
47921;DHT22;33686;48.770;9.186;2023-05-14T17:25:48;16.20;99.90
47921;DHT22;33686;48.770;9.186;2023-05-14T17:28:13;16.20;99.90
47921;DHT22;33686;48.770;9.186;2023-05-14T17:30:39;16.10;99.90
47921;DHT22;33686;48.770;9.186;2023-05-14T17:33:05;16.00;99.90
47921;DHT22;33686;48.770;9.186;2023-05-14T17:35:30;16.00;99.90
47921;DHT22;33686;48.770;9.186;2023-05-14T17:38:00;15.90;99.90
47921;DHT22;33686;48.770;9.186;2023-05-14T17:40:25;15.80;99.90
47921;DHT22;33686;48.770;9.186;2023-05-14T17:42:51;15.80;99.90
47921;DHT22;33686;48.770;9.186;2023-05-14T17:45:16;15.60;99.90
47921;DHT22;33686;48.770;9.186;2023-05-14T17:47:45;15.50;99.90
47921;DHT22;33686;48.770;9.186;2023-05-14T17:50:11;15.20;99.90
47921;DHT22;33686;48.770;9.186;2023-05-14T17:52:36;15.10;99.90
47921;DHT22;33686;48.770;9.186;2023-05-14T17:55:02;14.90;99.90
47921;DHT22;33686;48.770;9.186;2023-05-14T17:57:28;14.70;99.90
47921;DHT22;33686;48.770;9.186;2023-05-14T17:59:53;14.50;99.90
47921;DHT22;33686;48.770;9.186;2023-05-14T18:02:19;14.30;99.90
47921;DHT22;33686;48.770;9.186;2023-05-14T18:04:44;14.10;99.90
47921;DHT22;33686;48.770;9.186;2023-05-14T18:07:10;14.00;99.90
47921;DHT22;33686;48.770;9.186;2023-05-14T18:09:36;14.00;99.90
47921;DHT22;33686;48.770;9.186;2023-05-14T18:12:02;13.90;99.90
47921;DHT22;33686;48.770;9.186;2023-05-14T18:14:27;13.70;99.90
47921;DHT22;33686;48.770;9.186;2023-05-14T18:16:53;13.60;99.90
47921;DHT22;33686;48.770;9.186;2023-05-14T18:19:20;13.50;99.90
47921;DHT22;33686;48.770;9.186;2023-05-14T18:21:46;13.40;99.90
47921;DHT22;33686;48.770;9.186;2023-05-14T18:24:12;13.40;99.90
47921;DHT22;33686;48.770;9.186;2023-05-14T18:26:38;13.40;99.90
47921;DHT22;33686;48.770;9.186;2023-05-14T18:29:03;13.30;99.90
47921;DHT22;33686;48.770;9.186;2023-05-14T18:31:29;13.20;99.90
47921;DHT22;33686;48.770;9.186;2023-05-14T18:33:54;12.90;99.90
47921;DHT22;33686;48.770;9.186;2023-05-14T18:36:20;12.80;99.90
47921;DHT22;33686;48.770;9.186;2023-05-14T18:38:45;12.70;99.90
47921;DHT22;33686;48.770;9.186;2023-05-14T18:41:11;12.70;99.90
47921;DHT22;33686;48.770;9.186;2023-05-14T18:43:36;12.70;99.90
47921;DHT22;33686;48.770;9.186;2023-05-14T18:46:02;12.70;99.90
47921;DHT22;33686;48.770;9.186;2023-05-14T18:48:29;12.60;99.90
47921;DHT22;33686;48.770;9.186;2023-05-14T18:50:54;12.50;99.90
47921;DHT22;33686;48.770;9.186;2023-05-14T18:53:20;12.40;99.90
47921;DHT22;33686;48.770;9.186;2023-05-14T18:55:45;12.40;99.90
47921;DHT22;33686;48.770;9.186;2023-05-14T18:58:11;12.40;99.90
47921;DHT22;33686;48.770;9.186;2023-05-14T19:00:36;12.20;99.90
47921;DHT22;33686;48.770;9.186;2023-05-14T19:03:02;12.20;99.90
47921;DHT22;33686;48.770;9.186;2023-05-14T19:05:27;12.10;99.90
47921;DHT22;33686;48.770;9.186;2023-05-14T19:07:53;12.00;99.90
47921;DHT22;33686;48.770;9.186;2023-05-14T19:10:18;11.80;99.90
47921;DHT22;33686;48.770;9.186;2023-05-14T19:12:45;11.80;99.90
47921;DHT22;33686;48.770;9.186;2023-05-14T19:15:10;11.80;99.90
47921;DHT22;33686;48.770;9.186;2023-05-14T19:17:36;11.70;99.90
47921;DHT22;33686;48.770;9.186;2023-05-14T19:20:02;11.70;99.90
47921;DHT22;33686;48.770;9.186;2023-05-14T19:22:28;11.50;99.90
47921;DHT22;33686;48.770;9.186;2023-05-14T19:24:53;11.40;99.90
47921;DHT22;33686;48.770;9.186;2023-05-14T19:27:19;11.40;99.90
47921;DHT22;33686;48.770;9.186;2023-05-14T19:29:45;11.50;99.90
47921;DHT22;33686;48.770;9.186;2023-05-14T19:32:10;11.50;99.90
47921;DHT22;33686;48.770;9.186;2023-05-14T19:34:36;11.50;99.90
47921;DHT22;33686;48.770;9.186;2023-05-14T19:37:03;11.40;99.90
47921;DHT22;33686;48.770;9.186;2023-05-14T19:39:29;11.40;99.90
47921;DHT22;33686;48.770;9.186;2023-05-14T19:41:54;11.40;99.90
47921;DHT22;33686;48.770;9.186;2023-05-14T19:44:20;11.50;99.90
47921;DHT22;33686;48.770;9.186;2023-05-14T19:46:45;11.60;99.90
47921;DHT22;33686;48.770;9.186;2023-05-14T19:49:11;11.60;99.90
47921;DHT22;33686;48.770;9.186;2023-05-14T19:51:36;11.50;99.90
47921;DHT22;33686;48.770;9.186;2023-05-14T19:54:02;11.70;99.90
47921;DHT22;33686;48.770;9.186;2023-05-14T19:56:27;11.80;99.90
47921;DHT22;33686;48.770;9.186;2023-05-14T19:58:53;11.90;99.90
47921;DHT22;33686;48.770;9.186;2023-05-14T20:01:19;11.80;99.90
47921;DHT22;33686;48.770;9.186;2023-05-14T20:03:45;11.70;99.90
47921;DHT22;33686;48.770;9.186;2023-05-14T20:06:11;11.70;99.90
47921;DHT22;33686;48.770;9.186;2023-05-14T20:08:36;11.70;99.90
47921;DHT22;33686;48.770;9.186;2023-05-14T20:11:02;11.70;99.90
47921;DHT22;33686;48.770;9.186;2023-05-14T20:13:28;11.80;99.90
47921;DHT22;33686;48.770;9.186;2023-05-14T20:15:56;11.80;99.90
47921;DHT22;33686;48.770;9.186;2023-05-14T20:18:22;11.70;99.90
47921;DHT22;33686;48.770;9.186;2023-05-14T20:20:47;11.60;99.90
47921;DHT22;33686;48.770;9.186;2023-05-14T20:23:13;11.60;99.90
47921;DHT22;33686;48.770;9.186;2023-05-14T20:25:38;11.60;99.90
47921;DHT22;33686;48.770;9.186;2023-05-14T20:28:04;11.50;99.90
47921;DHT22;33686;48.770;9.186;2023-05-14T20:30:29;11.40;99.90
47921;DHT22;33686;48.770;9.186;2023-05-14T20:32:55;11.40;99.90
47921;DHT22;33686;48.770;9.186;2023-05-14T20:35:20;11.40;99.90
47921;DHT22;33686;48.770;9.186;2023-05-14T20:37:46;11.40;99.90